📊 Raw Sensor Data

Showing records 39126 to 39150 of 84,940 total

ID Distance (ft) Battery V Battery A Int Temp (°F) Int Humid (%) Ext Temp (°F) Solar V RSSI SNR Time Stamp
45827 15.6 3.95 0 105 49 97 5.10 -74 8 07/09/2025 06:00 PM
45826 15.6 4.05 0 106 48 99 5.10 -73 8 07/09/2025 05:45 PM
45825 15.7 3.95 0 105 47 99 5.10 -72 8 07/09/2025 05:30 PM
45824 15.6 3.95 0 106 46 97 5.10 -75 8 07/09/2025 05:15 PM
45823 15.6 3.95 7 105 45 97 5.10 -70 8 07/09/2025 05:00 PM
45822 15.6 3.95 7 104 45 93 5.10 -70 8 07/09/2025 04:45 PM
45821 15.6 3.95 5 104 44 94 5.10 -70 8 07/09/2025 04:30 PM
45820 15.5 4.03 7 102 44 93 5.10 -72 8 07/09/2025 04:15 PM
45819 15.5 3.95 7 102 44 92 5.10 -70 8 07/09/2025 04:00 PM
45818 15.6 3.95 7 102 43 92 5.10 -70 8 07/09/2025 03:45 PM
45817 15.5 3.95 0 102 42 90 5.10 -70 8 07/09/2025 03:30 PM
45816 15.5 3.95 0 101 42 93 5.10 -70 8 07/09/2025 03:15 PM
45815 15.5 4.07 0 99 42 91 5.10 -70 8 07/09/2025 03:00 PM
45814 15.5 3.95 0 98 42 89 5.10 -71 7 07/09/2025 02:45 PM
45813 15.5 3.99 7 97 41 87 5.10 -66 7 07/09/2025 02:30 PM
45812 15.5 4.12 5 95 41 86 5.10 -66 7 07/09/2025 02:15 PM
45811 15.5 3.94 6 92 41 83 5.10 -66 8 07/09/2025 01:45 PM
45810 15.5 3.96 8 90 41 83 5.10 -66 8 07/09/2025 01:30 PM
45809 15.5 4.00 8 88 42 83 5.10 -66 8 07/09/2025 01:15 PM
45808 15.5 3.94 8 87 42 81 5.10 -66 8 07/09/2025 01:00 PM
45807 15.5 3.94 8 85 43 79 5.10 -66 8 07/09/2025 12:45 PM
45806 15.6 4.09 8 85 43 79 5.10 -66 8 07/09/2025 12:30 PM
45805 15.6 3.94 0 83 43 84 5.10 -68 7 07/09/2025 12:15 PM
45804 15.6 3.94 7 80 43 83 5.10 -67 8 07/09/2025 11:45 AM
45803 15.6 4.04 8 79 43 81 5.10 -67 7 07/09/2025 11:30 AM